Weather at Goetsenhoven Airfield

Public forecast

Using degrees Celsius for public forecast. Weather courtesy of forecast.io.

Closest aviation weather report (METAR) to Goetsenhoven Airfield

Closest report is Beauvechain Air Base, 7.3 nm (13.6 km) W. Retrieved 2021/03/09 08:25 UTC (53 minutes ago):

EBBE 090825Z 25009KT 5000 SCT030 BKN040 04/02 Q1018 WHT WHT TEMPO YLO

Closest aviation forecast (TAF) to Goetsenhoven Airfield

Forecast is more than 12 hours old.

Closest forecast is Beauvechain Air Base, 7.3 nm (13.6 km) W. Retrieved 2021/03/03 19:45 UTC (6 days ago):

TAF TAF EBBE 031550Z 0319/0407 VRB03KT 9999 SCT090 BKN230 BECMG 0319/0321 SCT025 BKN040 BKN090 TEMPO 0321/0402 6000 -RA SCT020 BKN070 BECMG 0402/0404 BKN005 BKN012 TEMPO 0402/0407 2000 -RADZ BKN002 BKN004